Terminal Aerodrome Forecast
Issued by NWS Jackson, KY

Home | Current Version | Previous Version | Text Only | Print | Product List | Glossary On
Versions: 1 2 3 4 5 6 7 8 9 10 11
069
FTUS43 KJKL 302339
TAFLOZ
TAF
KLOZ 302339Z 0100/0124 18010G22KT P6SM VCTS SCT040CB
     FM010400 17009KT P6SM VCTS BKN080CB WS020/19045KT
     FM010800 19011G21KT P6SM -SHRA VCTS SCT040CB BKN090
      WS020/19045KT
      TEMPO 0108/0111 4SM TSRA OVC040CB
     FM011100 22011KT 6SM -SHRA VCTS OVC025CB WS020/19045KT
     FM011500 21014G25KT P6SM VCSH BKN050
     FM011800 21022G32KT P6SM SCT050=

USA.gov is the U.S. government's official web portal to all federal, state and local government web resources and services.